createdAt,value
2023-02-15T00:02:03.120Z,64.86
2023-02-15T00:04:47.068Z,64.95
2023-02-15T00:07:16.326Z,65.00
2023-02-15T00:09:43.537Z,65.07
2023-02-15T00:12:10.844Z,65.15
2023-02-15T00:14:38.082Z,65.19
2023-02-15T00:17:05.455Z,65.16
2023-02-15T00:19:32.665Z,65.20
2023-02-15T00:21:59.456Z,65.18
2023-02-15T00:24:26.668Z,65.23
2023-02-15T00:26:53.456Z,65.21
2023-02-15T00:29:20.887Z,65.21
2023-02-15T00:31:49.460Z,65.26
2023-02-15T00:34:19.295Z,65.24
2023-02-15T00:36:46.906Z,65.26
2023-02-15T00:39:15.915Z,65.04
2023-02-15T00:41:44.609Z,65.05
2023-02-15T00:44:12.101Z,65.09
2023-02-15T00:46:39.137Z,65.03
2023-02-15T00:49:09.956Z,64.90
2023-02-15T00:51:38.063Z,64.74
2023-02-15T00:54:05.423Z,64.81
2023-02-15T00:56:32.156Z,64.82
2023-02-15T00:58:58.812Z,64.82
2023-02-15T01:01:26.825Z,64.85
2023-02-15T01:03:54.034Z,64.79
2023-02-15T01:06:20.969Z,64.92
2023-02-15T01:08:48.604Z,64.92
2023-02-15T01:11:24.725Z,64.79
2023-02-15T01:13:53.682Z,64.80
2023-02-15T01:16:21.731Z,64.87
2023-02-15T01:18:48.930Z,64.85
2023-02-15T01:21:20.381Z,64.79
2023-02-15T01:23:47.269Z,64.64
2023-02-15T01:26:15.111Z,64.68
2023-02-15T01:28:43.696Z,64.70
2023-02-15T01:31:13.413Z,64.57
2023-02-15T01:33:40.731Z,64.54
2023-02-15T01:36:10.203Z,64.61
2023-02-15T01:38:37.024Z,64.63
2023-02-15T01:41:20.983Z,64.57
2023-02-15T01:44:00.075Z,64.55
2023-02-15T01:46:36.258Z,64.51
2023-02-15T01:49:11.468Z,64.56
2023-02-15T01:51:41.435Z,64.44
2023-02-15T01:54:29.844Z,64.17
2023-02-15T01:57:01.569Z,64.25
2023-02-15T01:59:32.797Z,64.00
2023-02-15T02:02:00.849Z,63.80
2023-02-15T02:04:32.698Z,63.71
2023-02-15T02:07:00.596Z,63.53
2023-02-15T02:09:28.022Z,63.37
2023-02-15T02:11:55.431Z,63.26
2023-02-15T02:14:23.795Z,62.77
2023-02-15T02:17:29.480Z,62.85
2023-02-15T02:20:36.843Z,62.94
2023-02-15T02:23:25.167Z,63.08
2023-02-15T02:26:06.381Z,62.58
2023-02-15T02:29:00.908Z,62.38
2023-02-15T02:31:49.682Z,62.55
2023-02-15T02:34:55.032Z,62.34
2023-02-15T02:37:31.887Z,62.43
2023-02-15T02:40:09.132Z,62.41
2023-02-15T02:42:46.871Z,62.50
2023-02-15T02:45:25.349Z,62.52
2023-02-15T02:48:00.378Z,62.51
2023-02-15T02:50:30.131Z,62.53
2023-02-15T02:52:59.426Z,62.64
2023-02-15T02:55:38.626Z,62.57
2023-02-15T02:58:10.420Z,62.74
2023-02-15T03:00:48.487Z,62.80
2023-02-15T03:03:28.933Z,62.87
2023-02-15T03:06:02.332Z,62.82
2023-02-15T03:08:46.303Z,62.83
2023-02-15T03:11:13.244Z,62.85
2023-02-15T03:13:41.855Z,62.86
2023-02-15T03:16:28.852Z,62.96
2023-02-15T03:19:00.597Z,62.87
2023-02-15T03:21:50.268Z,62.95
2023-02-15T03:24:23.074Z,62.96
2023-02-15T03:26:55.345Z,62.81
2023-02-15T03:29:26.892Z,62.75
2023-02-15T03:32:02.766Z,62.20
2023-02-15T03:34:30.361Z,62.42
2023-02-15T03:37:05.558Z,62.20
2023-02-15T03:39:56.168Z,62.38
2023-02-15T03:42:38.322Z,62.57
2023-02-15T03:45:09.049Z,62.50
2023-02-15T03:47:40.540Z,62.39
2023-02-15T03:50:35.500Z,62.35
2023-02-15T03:53:06.060Z,62.41
2023-02-15T03:55:35.457Z,62.44
2023-02-15T03:58:20.897Z,62.42
2023-02-15T04:01:17.583Z,62.42
2023-02-15T04:03:52.888Z,62.43
2023-02-15T04:06:19.772Z,62.45
2023-02-15T04:09:07.063Z,62.53
2023-02-15T04:11:33.868Z,62.52
2023-02-15T04:14:20.710Z,62.58
2023-02-15T04:16:47.542Z,62.35
2023-02-15T04:19:33.527Z,62.45
2023-02-15T04:22:18.916Z,62.42
2023-02-15T04:25:04.838Z,62.45
2023-02-15T04:27:31.615Z,62.43
2023-02-15T04:29:58.827Z,62.56
2023-02-15T04:32:25.512Z,62.55
2023-02-15T04:34:52.182Z,62.64
2023-02-15T04:37:19.145Z,62.57
2023-02-15T04:39:45.931Z,62.61
2023-02-15T04:42:12.695Z,62.72
2023-02-15T04:44:39.790Z,62.71
2023-02-15T04:47:06.461Z,62.76
2023-02-15T04:49:33.098Z,62.78
2023-02-15T04:52:00.145Z,62.86
2023-02-15T04:54:26.765Z,62.79
2023-02-15T04:56:53.548Z,62.81
2023-02-15T04:59:20.478Z,62.85
2023-02-15T05:01:47.139Z,62.94
2023-02-15T05:04:13.888Z,63.01
2023-02-15T05:06:41.011Z,63.00
2023-02-15T05:09:07.915Z,63.02
2023-02-15T05:11:34.813Z,63.03
2023-02-15T05:14:01.816Z,63.09
2023-02-15T05:16:29.024Z,63.04
2023-02-15T05:18:55.894Z,62.95
2023-02-15T05:21:22.930Z,63.00
2023-02-15T05:23:49.747Z,62.99
2023-02-15T05:26:41.446Z,63.06
2023-02-15T05:29:09.370Z,63.07
2023-02-15T05:31:36.881Z,63.00
2023-02-15T05:34:04.846Z,62.93
2023-02-15T05:36:31.971Z,62.94
2023-02-15T05:38:58.687Z,62.71
2023-02-15T05:41:26.550Z,62.78
2023-02-15T05:43:56.822Z,62.64
2023-02-15T05:46:23.627Z,62.40
2023-02-15T05:48:50.488Z,62.26
2023-02-15T05:51:17.978Z,62.09
2023-02-15T05:53:45.026Z,62.15
2023-02-15T05:56:12.258Z,62.26
2023-02-15T05:58:41.464Z,62.13
2023-02-15T06:01:16.726Z,61.90
2023-02-15T06:03:45.107Z,62.06
2023-02-15T06:06:12.266Z,62.03
2023-02-15T06:08:39.134Z,62.18
2023-02-15T06:11:06.460Z,62.14
2023-02-15T06:13:37.250Z,62.35
2023-02-15T06:16:06.119Z,62.58
2023-02-15T06:18:33.536Z,62.86
2023-02-15T06:21:00.307Z,63.04
2023-02-15T06:23:27.029Z,63.15
2023-02-15T06:25:54.123Z,63.22
2023-02-15T06:28:20.975Z,63.24
2023-02-15T06:30:47.811Z,63.24
2023-02-15T06:33:14.989Z,63.21
2023-02-15T06:35:42.124Z,63.11
2023-02-15T06:38:08.917Z,63.04
2023-02-15T06:40:36.185Z,63.09
2023-02-15T06:43:03.023Z,63.09
2023-02-15T06:45:29.699Z,62.97
2023-02-15T06:47:56.698Z,62.91
2023-02-15T06:50:23.600Z,62.83
2023-02-15T06:52:50.315Z,62.81
2023-02-15T06:55:17.249Z,62.72
2023-02-15T06:57:43.916Z,62.78
2023-02-15T07:00:11.269Z,62.64
2023-02-15T07:02:38.201Z,62.57
2023-02-15T07:05:06.191Z,62.70
2023-02-15T07:07:33.275Z,62.53
2023-02-15T07:10:00.234Z,62.61
2023-02-15T07:12:45.508Z,62.67
2023-02-15T07:15:15.759Z,62.41
2023-02-15T07:17:43.180Z,62.47
2023-02-15T07:20:15.068Z,62.55
2023-02-15T07:22:42.182Z,62.47
2023-02-15T07:25:10.764Z,62.55
2023-02-15T07:27:37.924Z,62.59
2023-02-15T07:30:08.132Z,62.60
2023-02-15T07:32:34.932Z,62.65
2023-02-15T07:35:01.839Z,62.73
2023-02-15T07:37:29.378Z,62.81
2023-02-15T07:39:55.996Z,62.76
2023-02-15T07:42:23.075Z,62.75
2023-02-15T07:44:51.414Z,62.69
2023-02-15T07:47:18.118Z,62.74
2023-02-15T07:49:45.594Z,62.81
2023-02-15T07:52:12.601Z,62.87
2023-02-15T07:54:39.262Z,62.92
2023-02-15T07:57:05.928Z,62.94
2023-02-15T07:59:32.790Z,62.97
2023-02-15T08:01:59.657Z,63.01
2023-02-15T08:04:26.622Z,63.10
2023-02-15T08:06:55.304Z,62.95
2023-02-15T08:09:22.506Z,62.88
2023-02-15T08:11:50.362Z,63.06
2023-02-15T08:14:19.664Z,62.98
2023-02-15T08:16:47.897Z,62.96
2023-02-15T08:19:20.685Z,63.11
2023-02-15T08:21:50.415Z,63.14
2023-02-15T08:24:21.646Z,63.09
2023-02-15T08:26:49.491Z,63.23
2023-02-15T08:29:18.757Z,63.27
2023-02-15T08:31:48.312Z,63.21
2023-02-15T08:34:17.963Z,63.27
2023-02-15T08:36:46.158Z,63.30
2023-02-15T08:39:14.984Z,63.23
2023-02-15T08:41:44.470Z,63.34
2023-02-15T08:44:11.849Z,63.24
2023-02-15T08:46:41.284Z,63.32
2023-02-15T08:49:08.406Z,63.33
2023-02-15T08:51:37.743Z,63.13
2023-02-15T08:54:06.963Z,63.22
2023-02-15T08:56:38.941Z,63.12
2023-02-15T08:59:07.781Z,63.22
2023-02-15T09:01:35.963Z,62.81
2023-02-15T09:04:10.814Z,62.87
2023-02-15T09:06:39.576Z,62.98
2023-02-15T09:09:08.866Z,63.02
2023-02-15T09:11:41.958Z,62.99
2023-02-15T09:14:16.214Z,63.08
2023-02-15T09:16:50.329Z,63.16
2023-02-15T09:19:19.428Z,63.09
2023-02-15T09:21:46.734Z,62.87
2023-02-15T09:24:16.061Z,62.85
2023-02-15T09:26:47.690Z,62.93
2023-02-15T09:29:16.836Z,62.83
2023-02-15T09:31:47.187Z,62.77
2023-02-15T09:34:17.733Z,62.62
2023-02-15T09:36:45.938Z,62.76
2023-02-15T09:39:24.834Z,62.73
2023-02-15T09:42:34.274Z,62.69
2023-02-15T09:45:27.854Z,62.86
2023-02-15T09:48:15.669Z,62.92
2023-02-15T09:51:04.639Z,62.89
2023-02-15T09:53:35.607Z,62.83
2023-02-15T09:56:21.270Z,62.87
2023-02-15T09:59:12.746Z,63.05
2023-02-15T10:02:00.981Z,63.05
2023-02-15T10:04:47.038Z,62.89
2023-02-15T10:07:38.618Z,63.02
2023-02-15T10:10:14.664Z,63.03
2023-02-15T10:13:06.225Z,63.01
2023-02-15T10:15:59.060Z,63.02
2023-02-15T10:18:45.944Z,63.04
2023-02-15T10:21:58.315Z,63.11
2023-02-15T10:24:30.955Z,62.91
2023-02-15T10:27:11.126Z,62.78
2023-02-15T10:29:39.884Z,62.69
2023-02-15T10:32:16.005Z,62.49
2023-02-15T10:34:58.850Z,62.43
2023-02-15T10:37:54.654Z,62.38
2023-02-15T10:40:52.359Z,62.38
2023-02-15T10:43:53.559Z,62.01
2023-02-15T10:46:33.792Z,62.14
2023-02-15T10:49:25.465Z,61.79
2023-02-15T10:52:34.384Z,61.67
2023-02-15T10:55:25.757Z,61.87
2023-02-15T10:58:12.897Z,61.59
2023-02-15T11:00:49.380Z,61.34
2023-02-15T11:03:35.685Z,60.96
2023-02-15T11:06:02.714Z,60.92
2023-02-15T11:08:35.569Z,60.47
2023-02-15T11:11:08.223Z,60.30
2023-02-15T11:13:41.160Z,60.16
2023-02-15T11:16:19.034Z,60.23
2023-02-15T11:19:01.064Z,60.42
2023-02-15T11:21:39.952Z,60.32
2023-02-15T11:24:28.761Z,60.71
2023-02-15T11:27:17.434Z,60.16
2023-02-15T11:30:05.552Z,59.57
2023-02-15T11:32:39.965Z,59.62
2023-02-15T11:35:12.911Z,59.42
2023-02-15T11:37:51.318Z,59.23
2023-02-15T11:40:48.847Z,59.42
2023-02-15T11:43:24.833Z,59.22
2023-02-15T11:45:52.061Z,58.35
2023-02-15T11:48:19.075Z,57.86
2023-02-15T11:50:46.821Z,58.08
2023-02-15T11:53:16.843Z,57.66
2023-02-15T11:55:48.617Z,57.73
2023-02-15T11:58:38.439Z,57.99
2023-02-15T12:01:11.123Z,58.24
2023-02-15T12:03:47.731Z,57.75
2023-02-15T12:06:20.896Z,57.83
2023-02-15T12:08:55.357Z,57.62
2023-02-15T12:11:30.369Z,57.71
2023-02-15T12:14:08.049Z,57.61
2023-02-15T12:16:56.640Z,57.59
2023-02-15T12:19:35.607Z,57.85
2023-02-15T12:22:04.896Z,57.25
2023-02-15T12:24:35.756Z,57.01
2023-02-15T12:27:06.527Z,56.81
2023-02-15T12:29:56.118Z,56.82
2023-02-15T12:32:57.691Z,56.66
2023-02-15T12:35:31.456Z,56.40
2023-02-15T12:38:04.730Z,55.73
2023-02-15T12:40:34.278Z,55.41
2023-02-15T12:43:01.809Z,55.23
2023-02-15T12:45:33.818Z,55.42
2023-02-15T12:48:10.649Z,55.30
2023-02-15T12:50:37.608Z,55.54
2023-02-15T12:53:34.082Z,55.25
2023-02-15T12:56:07.018Z,55.60
2023-02-15T12:58:36.087Z,54.94
2023-02-15T13:01:17.395Z,54.50
2023-02-15T13:04:07.445Z,54.80
2023-02-15T13:06:36.860Z,54.80
2023-02-15T13:09:20.783Z,54.32
2023-02-15T13:11:48.305Z,54.49
2023-02-15T13:14:20.726Z,53.88
2023-02-15T13:16:51.900Z,54.20
2023-02-15T13:19:43.138Z,53.97
2023-02-15T13:22:16.154Z,53.88
2023-02-15T13:24:57.170Z,53.52
2023-02-15T13:27:34.211Z,53.85
2023-02-15T13:30:05.056Z,53.62
2023-02-15T13:32:39.188Z,52.92
2023-02-15T13:35:09.592Z,53.20
2023-02-15T13:38:03.662Z,52.87
2023-02-15T13:40:37.789Z,53.03
2023-02-15T13:43:27.686Z,52.89
2023-02-15T13:46:33.452Z,52.34
2023-02-15T13:49:08.689Z,52.74
2023-02-15T13:51:57.064Z,51.52
2023-02-15T13:54:36.383Z,52.31
2023-02-15T13:57:21.181Z,51.88
2023-02-15T14:00:05.142Z,51.33
2023-02-15T14:02:58.681Z,51.96
2023-02-15T14:06:03.525Z,51.22
2023-02-15T14:09:09.258Z,51.75
2023-02-15T14:12:03.858Z,51.79
2023-02-15T14:14:41.056Z,51.21
2023-02-15T14:17:32.801Z,51.00
2023-02-15T14:20:16.265Z,51.41
2023-02-15T14:23:08.724Z,51.48
2023-02-15T14:25:50.925Z,51.07
2023-02-15T14:28:22.898Z,50.64
2023-02-15T14:30:51.621Z,49.88
2023-02-15T14:33:39.376Z,50.01
2023-02-15T14:36:08.761Z,50.12
2023-02-15T14:38:52.814Z,49.99
2023-02-15T14:41:24.155Z,50.05
2023-02-15T14:43:56.813Z,49.72
2023-02-15T14:46:51.887Z,49.68
2023-02-15T14:49:33.053Z,50.09
2023-02-15T14:52:19.945Z,50.02
2023-02-15T14:54:49.609Z,49.88
2023-02-15T14:57:16.307Z,49.35
2023-02-15T15:00:00.262Z,49.44
2023-02-15T15:02:29.264Z,49.51
2023-02-15T15:05:07.282Z,49.11
2023-02-15T15:07:44.583Z,49.22
2023-02-15T15:10:17.795Z,49.37
2023-02-15T15:12:48.721Z,49.20
2023-02-15T15:15:27.596Z,49.17
2023-02-15T15:18:03.610Z,49.46
2023-02-15T15:20:52.135Z,49.29
2023-02-15T15:23:19.125Z,49.40
2023-02-15T15:25:53.158Z,49.16
2023-02-15T15:28:39.625Z,49.28
2023-02-15T15:31:37.782Z,49.45
2023-02-15T15:34:40.581Z,49.55
2023-02-15T15:37:18.628Z,49.49
2023-02-15T15:40:10.592Z,48.96
2023-02-15T15:43:28.966Z,49.14
2023-02-15T15:46:11.755Z,49.23
2023-02-15T15:48:41.261Z,48.94
2023-02-15T15:51:17.323Z,49.22
2023-02-15T15:53:49.909Z,49.07
2023-02-15T15:56:22.391Z,49.14
2023-02-15T15:58:56.940Z,49.10
2023-02-15T16:01:29.697Z,49.15
2023-02-15T16:03:59.436Z,49.11
2023-02-15T16:06:37.919Z,49.39
2023-02-15T16:09:22.706Z,49.40
2023-02-15T16:11:56.175Z,49.21
2023-02-15T16:14:29.963Z,49.04
2023-02-15T16:17:00.598Z,49.09
2023-02-15T16:19:31.442Z,49.04
2023-02-15T16:22:00.193Z,49.01
2023-02-15T16:24:54.708Z,49.08
2023-02-15T16:27:31.485Z,49.11
2023-02-15T16:29:58.536Z,49.12
2023-02-15T16:32:27.406Z,48.88
2023-02-15T16:34:56.882Z,48.89
2023-02-15T16:37:28.223Z,49.06
2023-02-15T16:39:56.387Z,49.05
2023-02-15T16:42:23.802Z,49.28
2023-02-15T16:45:17.618Z,49.30
2023-02-15T16:47:48.760Z,49.39
2023-02-15T16:50:23.720Z,49.00
2023-02-15T16:52:52.507Z,49.10
2023-02-15T16:55:39.403Z,49.05
2023-02-15T16:58:08.592Z,49.16
2023-02-15T17:00:40.401Z,49.29
2023-02-15T17:03:21.777Z,49.26
2023-02-15T17:05:52.363Z,49.26
2023-02-15T17:08:25.237Z,49.16
2023-02-15T17:11:10.816Z,49.25
2023-02-15T17:13:38.506Z,49.17
2023-02-15T17:16:06.641Z,49.29
2023-02-15T17:18:40.568Z,49.35
2023-02-15T17:21:24.695Z,49.46
2023-02-15T17:23:57.716Z,49.27
2023-02-15T17:26:29.970Z,49.23
2023-02-15T17:29:03.008Z,48.96
2023-02-15T17:31:34.206Z,49.06
2023-02-15T17:34:03.722Z,48.99
2023-02-15T17:36:32.634Z,49.29
2023-02-15T17:38:59.339Z,49.29
2023-02-15T17:41:26.632Z,49.53
2023-02-15T17:43:53.800Z,49.40
2023-02-15T17:46:23.618Z,49.42
2023-02-15T17:48:56.053Z,49.60
2023-02-15T17:51:23.726Z,49.68
2023-02-15T17:54:09.012Z,49.82
2023-02-15T17:56:38.542Z,49.85
2023-02-15T17:59:07.654Z,49.94
2023-02-15T18:01:54.672Z,49.90
2023-02-15T18:04:41.852Z,49.92
2023-02-15T18:07:32.236Z,49.87
2023-02-15T18:10:17.756Z,49.93
2023-02-15T18:12:45.244Z,49.93
2023-02-15T18:15:13.129Z,50.14
2023-02-15T18:17:46.479Z,50.17
2023-02-15T18:20:24.852Z,50.01
2023-02-15T18:22:55.112Z,50.09
2023-02-15T18:25:25.578Z,50.30
2023-02-15T18:27:55.107Z,50.25
2023-02-15T18:30:26.892Z,50.40
2023-02-15T18:32:57.115Z,50.46
2023-02-15T18:35:28.604Z,50.48
2023-02-15T18:37:56.279Z,50.56
2023-02-15T18:40:27.486Z,50.68
2023-02-15T18:42:56.952Z,50.76
2023-02-15T18:45:28.548Z,50.86
2023-02-15T18:47:55.613Z,50.85
2023-02-15T18:50:24.489Z,50.82
2023-02-15T18:52:51.715Z,50.93
2023-02-15T18:55:25.039Z,50.91
2023-02-15T18:57:54.213Z,51.01
2023-02-15T19:00:30.199Z,51.06
2023-02-15T19:02:57.156Z,51.04
2023-02-15T19:05:27.528Z,51.27
2023-02-15T19:07:55.127Z,51.22
2023-02-15T19:10:25.735Z,51.37
2023-02-15T19:12:53.976Z,51.44
2023-02-15T19:15:30.488Z,51.45
2023-02-15T19:17:58.378Z,51.50
2023-02-15T19:20:29.856Z,51.60
2023-02-15T19:22:58.354Z,51.53
2023-02-15T19:25:28.088Z,51.70
2023-02-15T19:27:56.151Z,51.70
2023-02-15T19:30:30.082Z,51.82
2023-02-15T19:32:59.256Z,51.83
2023-02-15T19:35:29.784Z,51.98
2023-02-15T19:38:02.480Z,52.02
2023-02-15T19:40:32.952Z,52.04
2023-02-15T19:43:00.002Z,52.02
2023-02-15T19:45:29.054Z,52.09
2023-02-15T19:47:57.106Z,52.10
2023-02-15T19:50:31.177Z,52.19
2023-02-15T19:52:58.495Z,52.11
2023-02-15T19:55:30.740Z,52.29
2023-02-15T19:57:59.494Z,52.29
2023-02-15T20:00:34.248Z,52.33
2023-02-15T20:03:01.790Z,52.35
2023-02-15T20:05:30.945Z,52.46
2023-02-15T20:07:58.358Z,52.51
2023-02-15T20:10:29.397Z,52.53
2023-02-15T20:12:56.755Z,52.57
2023-02-15T20:15:31.046Z,52.59
2023-02-15T20:17:59.961Z,52.64
2023-02-15T20:20:38.706Z,52.63
2023-02-15T20:23:07.057Z,52.65
2023-02-15T20:25:34.174Z,52.68
2023-02-15T20:28:01.606Z,52.53
2023-02-15T20:30:32.038Z,52.75
2023-02-15T20:32:59.008Z,52.86
2023-02-15T20:35:28.787Z,52.89
2023-02-15T20:38:00.331Z,52.95
2023-02-15T20:40:32.446Z,53.08
2023-02-15T20:43:00.942Z,53.13
2023-02-15T20:45:32.996Z,53.22
2023-02-15T20:48:01.837Z,53.24
2023-02-15T20:50:31.150Z,53.34
2023-02-15T20:53:00.195Z,53.40
2023-02-15T20:55:30.643Z,53.46
2023-02-15T20:57:58.882Z,53.53
2023-02-15T21:00:29.398Z,53.65
2023-02-15T21:03:01.613Z,53.71
2023-02-15T21:05:32.834Z,53.74
2023-02-15T21:08:00.604Z,53.83
2023-02-15T21:10:30.886Z,53.88
2023-02-15T21:13:01.304Z,53.98
2023-02-15T21:15:31.396Z,54.07
2023-02-15T21:18:00.714Z,54.20
2023-02-15T21:20:29.715Z,54.27
2023-02-15T21:23:00.028Z,54.41
2023-02-15T21:25:34.659Z,54.43
2023-02-15T21:28:02.102Z,54.42
2023-02-15T21:30:29.278Z,54.55
2023-02-15T21:32:56.214Z,54.61
2023-02-15T21:35:23.795Z,54.68
2023-02-15T21:37:52.784Z,54.76
2023-02-15T21:40:23.677Z,54.80
2023-02-15T21:43:09.704Z,54.87
2023-02-15T21:45:55.183Z,54.98
2023-02-15T21:48:23.230Z,54.99
2023-02-15T21:51:09.186Z,55.09
2023-02-15T21:53:42.549Z,55.13
2023-02-15T21:56:12.630Z,55.16
2023-02-15T21:58:40.729Z,55.25
2023-02-15T22:01:37.521Z,55.31
2023-02-15T22:04:14.593Z,55.35
2023-02-15T22:06:41.707Z,55.39
2023-02-15T22:09:17.828Z,55.49
2023-02-15T22:11:45.206Z,55.51
2023-02-15T22:14:36.459Z,55.63
2023-02-15T22:17:17.789Z,55.63
2023-02-15T22:19:46.306Z,55.71
2023-02-15T22:22:13.478Z,55.84
2023-02-15T22:24:41.161Z,55.92
2023-02-15T22:27:18.759Z,55.96
2023-02-15T22:29:45.597Z,55.94
2023-02-15T22:32:21.630Z,56.05
2023-02-15T22:34:49.151Z,56.08
2023-02-15T22:37:17.164Z,56.17
2023-02-15T22:39:44.427Z,56.25
2023-02-15T22:42:27.371Z,56.30
2023-02-15T22:44:56.988Z,56.29
2023-02-15T22:47:27.380Z,56.47
2023-02-15T22:49:54.939Z,56.51
2023-02-15T22:52:22.281Z,56.64
2023-02-15T22:54:49.408Z,56.70
2023-02-15T22:57:31.227Z,56.72
2023-02-15T23:00:00.591Z,56.71
2023-02-15T23:02:27.792Z,56.84
2023-02-15T23:04:54.629Z,56.88
2023-02-15T23:07:23.148Z,56.92
2023-02-15T23:09:51.204Z,56.99
2023-02-15T23:12:26.935Z,57.05
2023-02-15T23:14:54.931Z,57.06
2023-02-15T23:17:21.888Z,57.18
2023-02-15T23:19:48.658Z,57.26
2023-02-15T23:22:17.964Z,57.29
2023-02-15T23:24:52.026Z,57.35
2023-02-15T23:27:38.084Z,57.34
2023-02-15T23:30:06.830Z,57.43
2023-02-15T23:32:33.977Z,57.47
2023-02-15T23:35:00.696Z,57.53
2023-02-15T23:37:27.927Z,57.66
2023-02-15T23:40:13.583Z,57.75
2023-02-15T23:42:40.443Z,57.87
2023-02-15T23:45:21.813Z,57.87
2023-02-15T23:48:07.734Z,57.85
2023-02-15T23:50:34.829Z,58.02
2023-02-15T23:53:01.517Z,58.09
2023-02-15T23:55:40.761Z,58.16
2023-02-15T23:58:16.685Z,58.18
